createdAt,value
2023-06-10T00:01:00.856Z,27.60
2023-06-10T00:03:54.322Z,26.80
2023-06-10T00:06:26.659Z,27.60
2023-06-10T00:08:59.220Z,26.20
2023-06-10T00:11:31.495Z,30.10
2023-06-10T00:14:04.206Z,29.80
2023-06-10T00:16:37.369Z,26.50
2023-06-10T00:19:10.084Z,27.30
2023-06-10T00:21:42.522Z,27.70
2023-06-10T00:24:14.783Z,28.70
2023-06-10T00:26:47.694Z,26.80
2023-06-10T00:29:19.864Z,27.90
2023-06-10T00:31:52.074Z,27.50
2023-06-10T00:34:24.236Z,28.20
2023-06-10T00:36:57.995Z,28.30
2023-06-10T00:39:32.444Z,29.70
2023-06-10T00:42:08.166Z,27.00
2023-06-10T00:44:40.782Z,27.40
2023-06-10T00:47:13.641Z,28.10
2023-06-10T00:50:00.312Z,28.10
2023-06-10T00:52:32.988Z,28.50
2023-06-10T00:55:06.044Z,28.70
2023-06-10T00:57:41.384Z,26.40
2023-06-10T01:00:16.329Z,26.70
2023-06-10T01:02:53.671Z,27.00
2023-06-10T01:05:26.716Z,27.60
2023-06-10T01:08:09.355Z,27.80
2023-06-10T01:10:44.099Z,25.50
2023-06-10T01:13:19.173Z,30.80
2023-06-10T01:15:51.821Z,26.90
2023-06-10T01:18:24.777Z,25.90
2023-06-10T01:20:57.557Z,25.50
2023-06-10T01:23:30.104Z,27.40
2023-06-10T01:26:07.094Z,26.00
2023-06-10T01:28:46.613Z,25.50
2023-06-10T01:31:35.207Z,28.90
2023-06-10T01:34:14.273Z,27.40
2023-06-10T01:36:51.769Z,28.00
2023-06-10T01:39:28.817Z,26.70
2023-06-10T01:42:03.499Z,25.90
2023-06-10T01:44:36.462Z,25.70
2023-06-10T01:47:14.152Z,26.20
2023-06-10T01:49:47.054Z,25.80
2023-06-10T01:52:19.659Z,25.70
2023-06-10T01:54:54.844Z,25.20
2023-06-10T01:57:27.056Z,24.50
2023-06-10T02:00:02.418Z,26.70
2023-06-10T02:02:37.771Z,25.90
2023-06-10T02:05:12.672Z,24.50
2023-06-10T02:07:45.159Z,25.10
2023-06-10T02:10:17.453Z,25.00
2023-06-10T02:12:49.730Z,25.40
2023-06-10T02:15:22.890Z,25.20
2023-06-10T02:17:55.892Z,25.40
2023-06-10T02:20:28.933Z,24.70
2023-06-10T02:23:01.355Z,27.00
2023-06-10T02:25:34.898Z,26.90
2023-06-10T02:28:07.750Z,27.90
2023-06-10T02:30:42.897Z,28.60
2023-06-10T02:33:15.554Z,28.10
2023-06-10T02:35:50.964Z,26.70
2023-06-10T02:38:23.102Z,26.10
2023-06-10T02:40:55.665Z,25.20
2023-06-10T02:43:28.815Z,26.30
2023-06-10T02:46:01.893Z,24.50
2023-06-10T02:48:34.271Z,25.20
2023-06-10T02:51:06.629Z,24.90
2023-06-10T02:53:44.032Z,24.80
2023-06-10T02:56:20.122Z,26.90
2023-06-10T02:58:53.154Z,25.10
2023-06-10T03:01:27.920Z,26.50
2023-06-10T03:04:07.513Z,26.00
2023-06-10T03:06:41.953Z,24.90
2023-06-10T03:09:24.431Z,20.90
2023-06-10T03:11:58.586Z,21.50
2023-06-10T03:14:30.883Z,20.60
2023-06-10T03:17:04.307Z,20.30
2023-06-10T03:19:47.110Z,19.40
2023-06-10T03:22:21.685Z,20.80
2023-06-10T03:25:00.991Z,21.20
2023-06-10T03:27:34.020Z,23.20
2023-06-10T03:30:09.935Z,22.50
2023-06-10T03:32:42.962Z,21.90
2023-06-10T03:35:16.034Z,21.10
2023-06-10T03:37:48.503Z,19.80
2023-06-10T03:40:20.969Z,22.70
2023-06-10T03:42:53.404Z,20.60
2023-06-10T03:45:29.371Z,18.30
2023-06-10T03:48:04.768Z,18.00
2023-06-10T03:50:44.358Z,16.40
2023-06-10T03:53:17.066Z,17.10
2023-06-10T03:55:50.312Z,17.30
2023-06-10T03:58:28.008Z,20.70
2023-06-10T04:01:03.270Z,18.10
2023-06-10T04:03:40.490Z,18.40
2023-06-10T04:06:17.920Z,18.00
2023-06-10T04:08:52.580Z,20.70
2023-06-10T04:11:30.472Z,20.90
2023-06-10T04:14:09.305Z,18.80
2023-06-10T04:16:43.760Z,21.10
2023-06-10T04:19:16.834Z,21.70
2023-06-10T04:21:49.634Z,21.50
2023-06-10T04:24:22.368Z,25.10
2023-06-10T04:26:54.704Z,22.60
2023-06-10T04:29:26.920Z,19.20
2023-06-10T04:31:59.196Z,18.80
2023-06-10T04:34:31.427Z,19.30
2023-06-10T04:37:03.970Z,18.70
2023-06-10T04:39:39.095Z,24.10
2023-06-10T04:42:12.184Z,22.80
2023-06-10T04:44:45.142Z,20.00
2023-06-10T04:47:18.354Z,22.70
2023-06-10T04:49:50.854Z,18.70
2023-06-10T04:52:23.218Z,16.50
2023-06-10T04:54:59.385Z,18.00
2023-06-10T04:57:31.512Z,17.50
2023-06-10T05:00:06.795Z,16.70
2023-06-10T05:02:39.470Z,17.50
2023-06-10T05:05:12.401Z,15.30
2023-06-10T05:07:45.890Z,15.80
2023-06-10T05:10:18.105Z,15.50
2023-06-10T05:12:50.226Z,15.50
2023-06-10T05:15:22.519Z,15.10
2023-06-10T05:17:54.763Z,14.80
2023-06-10T05:20:27.936Z,15.40
2023-06-10T05:22:59.956Z,16.00
2023-06-10T05:25:34.815Z,15.50
2023-06-10T05:28:12.861Z,15.70
2023-06-10T05:30:47.253Z,15.80
2023-06-10T05:33:22.251Z,14.90
2023-06-10T05:35:54.842Z,17.30
2023-06-10T05:38:27.287Z,19.70
2023-06-10T05:41:00.089Z,14.10
2023-06-10T05:43:32.385Z,14.30
2023-06-10T05:46:04.938Z,14.90
2023-06-10T05:48:36.944Z,12.40
2023-06-10T05:51:09.459Z,13.70
2023-06-10T05:53:41.485Z,13.10
2023-06-10T05:56:14.069Z,12.70
2023-06-10T05:58:46.280Z,12.70
2023-06-10T06:01:18.841Z,12.50
2023-06-10T06:03:51.115Z,13.30
2023-06-10T06:06:23.471Z,11.90
2023-06-10T06:08:55.613Z,12.10
2023-06-10T06:11:28.303Z,14.50
2023-06-10T06:14:00.973Z,14.30
2023-06-10T06:16:33.219Z,12.10
2023-06-10T06:19:12.397Z,11.40
2023-06-10T06:21:46.912Z,10.30
2023-06-10T06:24:20.494Z,9.50
2023-06-10T06:26:52.835Z,10.90
2023-06-10T06:29:26.141Z,10.60
2023-06-10T06:32:01.943Z,11.60
2023-06-10T06:34:34.611Z,11.00
2023-06-10T06:37:09.218Z,10.50
2023-06-10T06:39:42.967Z,10.80
2023-06-10T06:42:18.526Z,10.70
2023-06-10T06:45:14.424Z,12.20
2023-06-10T06:47:47.187Z,10.80
2023-06-10T06:50:20.188Z,12.10
2023-06-10T06:52:52.554Z,9.80
2023-06-10T06:55:24.895Z,13.20
2023-06-10T06:57:57.126Z,11.60
2023-06-10T07:00:29.447Z,11.50
2023-06-10T07:03:01.844Z,14.60
2023-06-10T07:05:39.004Z,10.50
2023-06-10T07:08:13.351Z,10.20
2023-06-10T07:10:46.390Z,12.00
2023-06-10T07:13:21.302Z,9.20
2023-06-10T07:15:53.948Z,11.40
2023-06-10T07:18:26.140Z,9.70
2023-06-10T07:20:58.344Z,9.40
2023-06-10T07:23:30.500Z,8.00
2023-06-10T07:26:03.768Z,8.00
2023-06-10T07:28:40.074Z,7.10
2023-06-10T07:31:13.252Z,7.10
2023-06-10T07:33:45.774Z,8.10
2023-06-10T07:36:19.943Z,9.40
2023-06-10T07:38:59.613Z,8.30
2023-06-10T07:41:32.143Z,11.00
2023-06-10T07:44:06.128Z,7.20
2023-06-10T07:46:38.236Z,6.90
2023-06-10T07:49:11.446Z,7.20
2023-06-10T07:51:43.955Z,7.20
2023-06-10T07:54:19.808Z,6.70
2023-06-10T07:56:54.030Z,7.60
2023-06-10T07:59:26.914Z,6.70
2023-06-10T08:02:00.883Z,7.00
2023-06-10T08:04:33.167Z,7.20
2023-06-10T08:07:06.577Z,6.60
2023-06-10T08:09:39.953Z,6.80
2023-06-10T08:12:13.455Z,7.60
2023-06-10T08:14:49.009Z,9.70
2023-06-10T08:17:21.198Z,10.10
2023-06-10T08:19:53.551Z,9.00
2023-06-10T08:22:25.775Z,9.10
2023-06-10T08:24:58.329Z,7.10
2023-06-10T08:27:30.377Z,8.10
2023-06-10T08:30:02.574Z,8.70
2023-06-10T08:32:35.002Z,7.60
2023-06-10T08:35:08.317Z,39.40
2023-06-10T08:37:41.123Z,9.20
2023-06-10T08:40:15.031Z,19.30
2023-06-10T08:42:56.262Z,8.40
2023-06-10T08:45:32.520Z,8.30
2023-06-10T08:48:07.869Z,10.10
2023-06-10T08:50:41.943Z,9.20
2023-06-10T08:53:20.287Z,7.40
2023-06-10T08:55:55.285Z,7.50
2023-06-10T08:58:28.185Z,8.10
2023-06-10T09:01:00.434Z,8.80
2023-06-10T09:03:32.785Z,9.40
2023-06-10T09:06:07.063Z,9.50
2023-06-10T09:08:39.761Z,10.90
2023-06-10T09:11:11.823Z,8.40
2023-06-10T09:13:43.798Z,7.40
2023-06-10T09:16:17.573Z,8.90
2023-06-10T09:18:58.288Z,8.90
2023-06-10T09:21:30.560Z,8.60
2023-06-10T09:24:02.898Z,7.70
2023-06-10T09:26:35.027Z,8.00
2023-06-10T09:29:12.893Z,8.90
2023-06-10T09:31:46.141Z,7.70
2023-06-10T09:34:19.184Z,9.90
2023-06-10T09:36:51.287Z,8.20
2023-06-10T09:39:23.744Z,8.00
2023-06-10T09:41:56.308Z,10.60
2023-06-10T09:44:28.708Z,12.30
2023-06-10T09:47:04.751Z,7.80
2023-06-10T09:49:39.902Z,7.50
2023-06-10T09:52:12.340Z,7.20
2023-06-10T09:54:48.079Z,8.60
2023-06-10T09:57:20.927Z,7.70
2023-06-10T09:59:56.587Z,9.60
2023-06-10T10:02:28.945Z,7.90
2023-06-10T10:05:09.353Z,8.50
2023-06-10T10:07:43.779Z,9.20
2023-06-10T10:10:18.016Z,8.40
2023-06-10T10:12:53.372Z,6.50
2023-06-10T10:15:31.161Z,7.30
2023-06-10T10:18:09.137Z,9.20
2023-06-10T10:20:48.950Z,7.30
2023-06-10T10:23:29.579Z,7.50
2023-06-10T10:26:08.793Z,9.90
2023-06-10T10:28:47.785Z,7.70
2023-06-10T10:31:25.338Z,10.00
2023-06-10T10:34:01.181Z,7.80
2023-06-10T10:36:33.920Z,7.90
2023-06-10T10:39:09.908Z,9.60
2023-06-10T10:41:45.358Z,8.60
2023-06-10T10:44:18.723Z,8.70
2023-06-10T10:46:55.627Z,8.80
2023-06-10T10:49:29.421Z,8.50
2023-06-10T10:52:03.031Z,8.30
2023-06-10T10:54:37.163Z,7.50
2023-06-10T10:57:19.550Z,8.30
2023-06-10T10:59:58.030Z,7.80
2023-06-10T11:02:44.429Z,8.80
2023-06-10T11:05:19.566Z,8.80
2023-06-10T11:07:57.995Z,7.60
2023-06-10T11:10:37.283Z,9.70
2023-06-10T11:13:15.499Z,7.50
2023-06-10T11:15:49.391Z,6.80
2023-06-10T11:18:29.132Z,7.70
2023-06-10T11:21:06.909Z,5.70
2023-06-10T11:23:48.365Z,5.40
2023-06-10T11:26:23.546Z,5.30
2023-06-10T11:29:12.581Z,15.70
2023-06-10T11:31:51.635Z,6.30
2023-06-10T11:34:28.642Z,5.40
2023-06-10T11:37:01.354Z,5.50
2023-06-10T11:40:26.189Z,5.50
2023-06-10T11:43:00.205Z,6.20
2023-06-10T11:45:33.236Z,6.20
2023-06-10T11:48:06.304Z,7.40
2023-06-10T11:50:39.098Z,7.50
2023-06-10T11:53:13.242Z,7.30
2023-06-10T11:55:47.305Z,6.70
2023-06-10T11:58:21.248Z,9.90
2023-06-10T12:00:55.082Z,24.40
2023-06-10T12:03:38.319Z,11.80
2023-06-10T12:06:11.299Z,11.20
2023-06-10T12:08:48.398Z,10.50
2023-06-10T12:11:22.123Z,7.00
2023-06-10T12:14:39.565Z,8.90
2023-06-10T12:17:13.368Z,9.10
2023-06-10T12:19:46.648Z,7.70
2023-06-10T12:22:20.519Z,7.00
2023-06-10T12:25:04.006Z,10.60
2023-06-10T12:27:40.625Z,9.30
2023-06-10T12:30:20.593Z,9.50
2023-06-10T12:32:56.434Z,8.80
2023-06-10T12:35:30.120Z,7.20
2023-06-10T12:38:08.152Z,6.80
2023-06-10T12:40:45.674Z,8.40
2023-06-10T12:43:23.347Z,6.70
2023-06-10T12:45:55.868Z,9.10
2023-06-10T12:48:31.222Z,7.40
2023-06-10T12:51:04.185Z,10.10
2023-06-10T12:53:41.056Z,10.10
2023-06-10T12:56:16.652Z,8.90
2023-06-10T12:58:49.380Z,8.70
2023-06-10T13:01:21.715Z,7.00
2023-06-10T13:03:54.666Z,6.50
2023-06-10T13:06:26.871Z,7.00
2023-06-10T13:09:03.739Z,7.00
2023-06-10T13:11:40.316Z,6.50
2023-06-10T13:14:17.689Z,7.40
2023-06-10T13:16:50.962Z,6.70
2023-06-10T13:19:26.302Z,6.80
2023-06-10T13:21:59.018Z,6.50
2023-06-10T13:24:32.010Z,13.00
2023-06-10T13:27:04.707Z,8.50
2023-06-10T13:29:36.978Z,7.90
2023-06-10T13:32:10.827Z,10.90
2023-06-10T13:34:43.294Z,9.50
2023-06-10T13:37:15.685Z,10.10
2023-06-10T13:39:51.892Z,8.30
2023-06-10T13:42:30.690Z,10.50
2023-06-10T13:45:06.352Z,8.10
2023-06-10T13:47:42.726Z,9.10
2023-06-10T13:50:20.620Z,8.90
2023-06-10T13:52:56.563Z,10.20
2023-06-10T13:55:29.694Z,9.80
2023-06-10T13:58:02.363Z,8.10
2023-06-10T14:01:18.927Z,11.30
2023-06-10T14:03:51.226Z,8.40
2023-06-10T14:09:36.143Z,9.90
2023-06-10T14:12:14.632Z,8.10
2023-06-10T14:14:46.988Z,9.60
2023-06-10T14:17:19.893Z,9.10
2023-06-10T14:19:55.051Z,9.10
2023-06-10T14:22:27.983Z,11.40
2023-06-10T14:25:04.172Z,13.30
2023-06-10T14:27:36.565Z,9.70
2023-06-10T14:30:12.826Z,10.80
2023-06-10T14:32:47.389Z,13.80
2023-06-10T14:35:20.036Z,12.20
2023-06-10T14:41:01.705Z,8.90
2023-06-10T14:43:37.086Z,9.70
2023-06-10T14:46:09.538Z,12.80
2023-06-10T14:48:44.769Z,8.80
2023-06-10T14:51:23.765Z,11.60
2023-06-10T14:53:56.147Z,8.80
2023-06-10T14:56:28.558Z,9.70
2023-06-10T14:59:01.280Z,9.80
2023-06-10T15:01:33.602Z,11.70
2023-06-10T15:04:06.271Z,9.00
2023-06-10T15:06:38.411Z,12.30
2023-06-10T15:09:10.519Z,10.00
2023-06-10T15:11:42.645Z,9.00
2023-06-10T15:14:14.765Z,8.80
2023-06-10T15:16:49.282Z,9.20
2023-06-10T15:19:23.846Z,9.30
2023-06-10T15:21:59.542Z,12.70
2023-06-10T15:24:31.869Z,9.20
2023-06-10T15:27:03.962Z,9.70
2023-06-10T15:29:36.104Z,8.20
2023-06-10T15:32:19.146Z,7.60
2023-06-10T15:34:54.180Z,7.20
2023-06-10T15:37:26.422Z,6.80
2023-06-10T15:39:58.709Z,6.40
2023-06-10T15:42:34.350Z,6.60
2023-06-10T15:45:10.435Z,6.60
2023-06-10T15:47:43.742Z,6.70
2023-06-10T15:50:19.469Z,6.30
2023-06-10T15:52:54.704Z,7.00
2023-06-10T15:55:29.806Z,6.00
2023-06-10T15:58:03.540Z,5.20
2023-06-10T16:00:36.177Z,5.30
2023-06-10T16:03:12.587Z,6.50
2023-06-10T16:05:44.923Z,5.20
2023-06-10T16:08:17.451Z,6.20
2023-06-10T16:10:52.243Z,5.50
2023-06-10T16:13:26.686Z,5.40
2023-06-10T16:15:58.926Z,5.40
2023-06-10T16:18:37.661Z,6.10
2023-06-10T16:21:13.378Z,5.40
2023-06-10T16:23:52.243Z,5.50
2023-06-10T16:26:24.847Z,5.90
2023-06-10T16:28:57.224Z,5.20
2023-06-10T16:31:38.336Z,7.90
2023-06-10T16:34:13.446Z,6.00
2023-06-10T16:36:45.688Z,6.70
2023-06-10T16:39:22.736Z,5.20
2023-06-10T16:41:55.983Z,5.80
2023-06-10T16:44:32.579Z,5.30
2023-06-10T16:47:05.345Z,11.00
2023-06-10T16:49:45.450Z,6.50
2023-06-10T16:52:21.904Z,5.70
2023-06-10T16:55:00.674Z,5.80
2023-06-10T16:57:34.524Z,6.60
2023-06-10T17:00:18.511Z,6.80
2023-06-10T17:02:51.643Z,5.20
2023-06-10T17:05:30.429Z,6.00
2023-06-10T17:08:09.235Z,7.20
2023-06-10T17:10:41.614Z,6.80
2023-06-10T17:13:14.172Z,6.20
2023-06-10T17:15:47.041Z,6.20
2023-06-10T17:18:19.765Z,6.20
2023-06-10T17:20:52.483Z,6.10
2023-06-10T17:23:25.929Z,9.70
2023-06-10T17:25:58.288Z,8.10
2023-06-10T17:28:31.381Z,7.20
2023-06-10T17:31:03.612Z,7.50
2023-06-10T17:33:39.214Z,6.70
2023-06-10T17:36:14.571Z,6.90
2023-06-10T17:38:49.759Z,6.50
2023-06-10T17:41:25.461Z,6.40
2023-06-10T17:44:00.194Z,6.30
2023-06-10T17:46:32.642Z,6.80
2023-06-10T17:49:05.355Z,8.20
2023-06-10T17:51:42.289Z,7.30
2023-06-10T17:54:15.391Z,7.80
2023-06-10T17:56:50.979Z,6.60
2023-06-10T17:59:26.610Z,6.80
2023-06-10T18:02:02.061Z,7.20
2023-06-10T18:04:35.740Z,7.80
2023-06-10T18:07:08.980Z,8.10
2023-06-10T18:09:41.328Z,8.90
2023-06-10T18:12:14.983Z,8.90
2023-06-10T18:14:51.106Z,13.00
2023-06-10T18:17:23.849Z,14.90
2023-06-10T18:19:56.982Z,13.60
2023-06-10T18:22:32.396Z,11.90
2023-06-10T18:25:06.108Z,10.90
2023-06-10T18:27:38.758Z,14.20
2023-06-10T18:30:13.065Z,9.50
2023-06-10T18:32:46.655Z,10.50
2023-06-10T18:35:19.528Z,13.80
2023-06-10T18:37:51.981Z,13.90
2023-06-10T18:40:27.382Z,10.40
2023-06-10T18:42:59.942Z,21.80
2023-06-10T18:45:34.743Z,9.50
2023-06-10T18:48:10.710Z,10.70
2023-06-10T18:50:45.754Z,19.00
2023-06-10T18:53:18.564Z,11.50
2023-06-10T18:55:53.611Z,9.40
2023-06-10T18:58:34.459Z,9.60
2023-06-10T19:01:10.179Z,8.40
2023-06-10T19:03:47.522Z,9.50
2023-06-10T19:06:21.743Z,11.70
2023-06-10T19:09:04.567Z,9.60
2023-06-10T19:12:01.713Z,8.40
2023-06-10T19:14:40.062Z,8.60
2023-06-10T19:17:20.735Z,8.40
2023-06-10T19:19:59.420Z,9.00
2023-06-10T19:22:38.591Z,8.30
2023-06-10T19:25:20.455Z,8.60
2023-06-10T19:27:58.986Z,9.50
2023-06-10T19:30:41.633Z,11.40
2023-06-10T19:33:28.090Z,11.30
2023-06-10T19:36:03.457Z,10.60
2023-06-10T19:38:39.114Z,14.60
2023-06-10T19:41:15.963Z,11.70
2023-06-10T19:43:52.811Z,11.30
2023-06-10T19:46:27.186Z,11.80
2023-06-10T19:49:04.674Z,12.50
2023-06-10T19:51:37.893Z,12.50
2023-06-10T19:57:30.461Z,13.10
2023-06-10T20:00:04.339Z,13.00
2023-06-10T20:02:48.137Z,11.60
2023-06-10T20:05:24.519Z,12.10
2023-06-10T20:07:57.047Z,13.90
2023-06-10T20:10:29.300Z,11.80
2023-06-10T20:13:02.027Z,12.00
2023-06-10T20:15:34.480Z,12.00
2023-06-10T20:18:07.322Z,15.20
2023-06-10T20:20:40.120Z,11.10
2023-06-10T20:23:17.336Z,14.50
2023-06-10T20:25:49.721Z,14.40
2023-06-10T20:28:22.420Z,13.30
2023-06-10T20:30:58.458Z,14.00
2023-06-10T20:33:30.787Z,12.40
2023-06-10T20:36:05.863Z,13.50
2023-06-10T20:38:41.306Z,14.30
2023-06-10T20:41:24.399Z,12.40
2023-06-10T20:43:58.848Z,16.60
2023-06-10T20:46:31.433Z,14.80
2023-06-10T20:49:03.842Z,12.90
2023-06-10T20:51:36.408Z,14.00
2023-06-10T20:54:09.308Z,13.70
2023-06-10T20:56:42.501Z,13.60
2023-06-10T20:59:15.408Z,14.30
2023-06-10T21:01:47.852Z,11.50
2023-06-10T21:04:21.526Z,11.30
2023-06-10T21:06:54.081Z,11.80
2023-06-10T21:09:27.090Z,13.30
2023-06-10T21:12:00.666Z,11.30
2023-06-10T21:14:33.249Z,11.00
2023-06-10T21:17:05.695Z,13.30
2023-06-10T21:19:37.978Z,12.50
2023-06-10T21:22:10.341Z,11.70
2023-06-10T21:24:42.640Z,12.10
2023-06-10T21:27:17.151Z,13.70
2023-06-10T21:29:51.399Z,12.80
2023-06-10T21:32:24.433Z,10.90
2023-06-10T21:34:56.769Z,12.00
2023-06-10T21:37:30.800Z,15.20
2023-06-10T21:40:04.647Z,10.90
2023-06-10T21:42:36.776Z,12.10
2023-06-10T21:45:10.574Z,11.20
2023-06-10T21:47:43.333Z,12.70
2023-06-10T21:50:16.024Z,13.30
2023-06-10T21:52:50.351Z,11.70
2023-06-10T21:55:27.460Z,13.40
2023-06-10T21:57:59.651Z,20.90
2023-06-10T22:00:31.973Z,13.20
2023-06-10T22:03:04.383Z,14.40
2023-06-10T22:05:36.765Z,12.20
2023-06-10T22:08:09.068Z,13.70
2023-06-10T22:10:42.882Z,14.80
2023-06-10T22:13:19.313Z,13.30
2023-06-10T22:15:51.662Z,16.70
2023-06-10T22:18:28.247Z,12.20
2023-06-10T22:21:01.470Z,17.80
2023-06-10T22:23:33.796Z,11.30
2023-06-10T22:26:59.284Z,12.30
2023-06-10T22:29:16.637Z,13.80
2023-06-10T22:31:51.664Z,12.80
2023-06-10T22:34:24.140Z,14.60
2023-06-10T22:36:56.578Z,14.50
2023-06-10T22:39:29.026Z,14.20
2023-06-10T22:42:01.779Z,14.70
2023-06-10T22:44:53.922Z,13.50
2023-06-10T22:47:26.787Z,13.00
2023-06-10T22:50:01.452Z,13.70
2023-06-10T22:52:34.000Z,12.40
2023-06-10T22:55:07.290Z,13.10
2023-06-10T22:57:59.315Z,15.30
2023-06-10T23:00:32.013Z,14.80
2023-06-10T23:03:04.324Z,11.80
2023-06-10T23:05:37.395Z,13.40
2023-06-10T23:08:11.386Z,12.30
2023-06-10T23:10:46.329Z,15.60
2023-06-10T23:13:18.905Z,13.20
2023-06-10T23:15:51.447Z,13.10
2023-06-10T23:18:24.045Z,12.70
2023-06-10T23:21:00.071Z,13.80
2023-06-10T23:23:35.666Z,13.60
2023-06-10T23:26:08.353Z,13.10
2023-06-10T23:28:43.257Z,12.90
2023-06-10T23:31:15.524Z,15.20
2023-06-10T23:33:50.314Z,12.80
2023-06-10T23:36:25.016Z,16.20
2023-06-10T23:39:00.925Z,15.70
2023-06-10T23:41:35.492Z,15.50
2023-06-10T23:44:11.072Z,13.10
2023-06-10T23:46:43.772Z,11.90
2023-06-10T23:49:16.043Z,15.00
2023-06-10T23:51:49.730Z,13.90
2023-06-10T23:54:21.897Z,14.50
2023-06-10T23:56:54.264Z,13.60
2023-06-10T23:59:27.451Z,15.30
